createdAt,value
2018-11-28T00:00:56.520Z,60.56
2018-11-28T00:05:00.556Z,60.00
2018-11-28T00:09:21.156Z,60.06
2018-11-28T00:13:25.169Z,60.22
2018-11-28T00:17:29.164Z,60.23
2018-11-28T00:21:33.165Z,60.03
2018-11-28T00:25:37.130Z,59.97
2018-11-28T00:29:41.190Z,60.19
2018-11-28T00:33:45.209Z,60.01
2018-11-28T00:37:49.227Z,60.29
2018-11-28T00:41:53.280Z,59.78
2018-11-28T00:45:57.324Z,60.26
2018-11-28T00:50:01.287Z,60.10
2018-11-28T00:54:05.433Z,60.21
2018-11-28T00:58:09.435Z,60.63
2018-11-28T01:02:13.469Z,60.66
2018-11-28T01:06:17.492Z,60.99
2018-11-28T01:10:22.442Z,60.88
2018-11-28T01:14:26.517Z,60.96
2018-11-28T01:18:30.492Z,61.22
2018-11-28T01:22:34.548Z,61.25
2018-11-28T01:26:38.616Z,61.41
2018-11-28T01:30:42.657Z,61.64
2018-11-28T01:34:46.697Z,61.87
2018-11-28T01:38:50.620Z,61.60
2018-11-28T01:42:54.882Z,61.58
2018-11-28T01:46:58.996Z,61.87
2018-11-28T01:51:03.080Z,62.22
2018-11-28T01:55:08.646Z,62.04
2018-11-28T01:59:12.638Z,62.08
2018-11-28T02:03:16.665Z,62.02
2018-11-28T02:07:20.829Z,62.09
2018-11-28T02:11:24.849Z,61.90
2018-11-28T02:15:29.029Z,61.85
2018-11-28T02:19:33.037Z,61.87
2018-11-28T02:23:37.089Z,61.84
2018-11-28T02:27:41.156Z,61.83
2018-11-28T02:31:45.120Z,61.89
2018-11-28T02:35:49.102Z,61.75
2018-11-28T02:39:53.081Z,61.50
2018-11-28T02:43:57.077Z,61.51
2018-11-28T02:48:01.117Z,61.61
2018-11-28T02:52:05.316Z,61.43
2018-11-28T02:56:09.397Z,61.51
2018-11-28T03:00:18.365Z,61.74
2018-11-28T03:04:22.473Z,61.81
2018-11-28T03:08:26.506Z,61.86
2018-11-28T03:12:30.576Z,62.15
2018-11-28T03:16:34.629Z,61.90
2018-11-28T03:20:38.603Z,61.66
2018-11-28T03:24:42.544Z,61.60
2018-11-28T03:28:46.577Z,61.51
2018-11-28T03:32:50.556Z,61.81
2018-11-28T03:36:54.768Z,61.47
2018-11-28T03:40:58.887Z,62.01
2018-11-28T03:45:02.914Z,61.63
2018-11-28T03:49:06.888Z,61.71
2018-11-28T03:53:10.884Z,61.56
2018-11-28T03:57:14.961Z,61.56
2018-11-28T04:01:18.956Z,61.18
2018-11-28T04:05:22.926Z,61.12
2018-11-28T04:09:27.020Z,61.79
2018-11-28T04:13:31.120Z,61.29
2018-11-28T04:17:35.142Z,61.42
2018-11-28T04:21:39.105Z,61.56
2018-11-28T04:25:43.165Z,61.39
2018-11-28T04:29:47.182Z,61.55
2018-11-28T04:33:51.195Z,60.96
2018-11-28T04:37:55.352Z,60.99
2018-11-28T04:41:59.398Z,60.84
2018-11-28T04:46:03.379Z,60.82
2018-11-28T04:50:08.708Z,60.77
2018-11-28T04:54:12.784Z,60.89
2018-11-28T04:58:16.821Z,60.76
2018-11-28T05:02:20.853Z,60.59
2018-11-28T05:06:36.213Z,60.78
2018-11-28T05:10:40.269Z,60.69
2018-11-28T05:14:44.275Z,60.86
2018-11-28T05:18:48.412Z,60.81
2018-11-28T05:22:52.435Z,60.55
2018-11-28T05:26:56.710Z,60.85
2018-11-28T05:31:00.645Z,60.47
2018-11-28T05:35:05.035Z,60.65
2018-11-28T05:39:09.117Z,59.99
2018-11-28T05:43:13.340Z,60.46
2018-11-28T05:47:18.409Z,60.13
2018-11-28T05:51:22.441Z,60.60
2018-11-28T05:55:26.606Z,60.13
2018-11-28T05:59:30.637Z,60.56
2018-11-28T06:03:34.720Z,60.03
2018-11-28T06:07:38.751Z,60.21
2018-11-28T06:11:42.836Z,60.66
2018-11-28T06:15:46.897Z,60.45
2018-11-28T06:19:51.076Z,59.96
2018-11-28T06:23:55.075Z,59.92
2018-11-28T06:27:59.044Z,60.03
2018-11-28T06:32:03.049Z,60.35
2018-11-28T06:36:07.059Z,60.14
2018-11-28T06:40:13.049Z,59.87
2018-11-28T06:44:17.030Z,60.25
2018-11-28T06:48:21.079Z,60.47
2018-11-28T06:52:25.097Z,60.01
2018-11-28T06:56:29.148Z,59.89
2018-11-28T07:00:33.130Z,60.09
2018-11-28T07:04:37.204Z,59.90
2018-11-28T07:08:41.179Z,60.01
2018-11-28T07:12:45.142Z,59.65
2018-11-28T07:16:49.134Z,60.48
2018-11-28T07:20:53.105Z,60.19
2018-11-28T07:24:57.103Z,60.27
2018-11-28T07:29:01.064Z,60.57
2018-11-28T07:33:05.668Z,60.56
2018-11-28T07:37:09.907Z,60.46
2018-11-28T07:41:13.874Z,60.08
2018-11-28T07:45:17.900Z,60.65
2018-11-28T07:49:21.982Z,60.02
2018-11-28T07:53:26.107Z,60.65
2018-11-28T07:57:30.200Z,60.38
2018-11-28T08:01:34.297Z,60.28
2018-11-28T08:05:39.182Z,60.25
2018-11-28T08:09:43.325Z,60.05
2018-11-28T08:13:47.418Z,59.97
2018-11-28T08:17:51.481Z,59.64
2018-11-28T08:21:55.445Z,59.91
2018-11-28T08:25:59.447Z,59.66
2018-11-28T08:30:03.613Z,59.41
2018-11-28T08:34:07.661Z,59.41
2018-11-28T08:38:11.684Z,59.87
2018-11-28T08:42:15.773Z,59.29
2018-11-28T08:46:19.724Z,59.30
2018-11-28T08:50:25.852Z,58.99
2018-11-28T08:54:29.908Z,58.79
2018-11-28T08:58:34.009Z,58.60
2018-11-28T09:02:38.020Z,58.80
2018-11-28T09:06:41.969Z,58.71
2018-11-28T09:10:45.973Z,58.90
2018-11-28T09:14:49.941Z,58.89
2018-11-28T09:18:53.940Z,58.54
2018-11-28T09:22:57.911Z,58.99
2018-11-28T09:27:02.136Z,58.98
2018-11-28T09:31:06.227Z,58.55
2018-11-28T09:35:11.011Z,58.70
2018-11-28T09:39:15.040Z,58.35
2018-11-28T09:43:19.024Z,58.96
2018-11-28T09:47:23.010Z,58.66
2018-11-28T09:51:27.031Z,58.99
2018-11-28T09:55:31.012Z,58.62
2018-11-28T09:59:35.092Z,58.75
2018-11-28T10:03:39.202Z,58.89
2018-11-28T10:07:43.232Z,58.20
2018-11-28T10:11:47.217Z,58.20
2018-11-28T10:15:51.290Z,58.38
2018-11-28T10:19:55.268Z,58.12
2018-11-28T10:23:59.283Z,58.34
2018-11-28T10:28:06.160Z,58.12
2018-11-28T10:32:10.254Z,58.03
2018-11-28T10:36:14.194Z,57.65
2018-11-28T10:40:19.110Z,57.40
2018-11-28T10:44:23.139Z,57.17
2018-11-28T10:48:27.287Z,56.88
2018-11-28T10:52:31.394Z,57.47
2018-11-28T10:56:35.575Z,57.37
2018-11-28T11:00:44.800Z,57.06
2018-11-28T11:04:54.236Z,57.68
2018-11-28T11:09:03.658Z,57.35
2018-11-28T11:13:13.101Z,57.37
2018-11-28T11:17:17.236Z,57.18
2018-11-28T11:21:21.331Z,56.87
2018-11-28T11:25:25.261Z,57.18
2018-11-28T11:29:29.236Z,57.05
2018-11-28T11:33:33.231Z,57.23
2018-11-28T11:37:37.881Z,56.91
2018-11-28T11:41:41.899Z,56.51
2018-11-28T11:45:45.829Z,56.07
2018-11-28T11:49:49.867Z,54.98
2018-11-28T11:53:54.799Z,55.41
2018-11-28T11:57:58.862Z,54.83
2018-11-28T12:02:02.875Z,54.88
2018-11-28T12:06:06.948Z,54.63
2018-11-28T12:18:48.129Z,53.92
2018-11-28T12:22:52.921Z,54.35
2018-11-28T12:26:56.365Z,54.30
2018-11-28T12:31:00.375Z,54.54
2018-11-28T12:35:04.448Z,54.25
2018-11-28T12:39:10.920Z,53.83
2018-11-28T12:43:14.953Z,54.26
2018-11-28T12:47:18.940Z,54.02
2018-11-28T12:51:22.975Z,54.36
2018-11-28T12:55:27.075Z,54.56
2018-11-28T12:59:31.107Z,54.54
2018-11-28T13:03:35.165Z,54.61
2018-11-28T13:07:39.187Z,54.44
2018-11-28T13:11:43.243Z,54.79
2018-11-28T13:15:47.322Z,54.93
2018-11-28T13:19:51.262Z,54.98
2018-11-28T13:23:56.233Z,54.94
2018-11-28T13:28:00.208Z,55.16
2018-11-28T13:32:04.162Z,55.29
2018-11-28T13:36:08.156Z,55.11
2018-11-28T13:40:13.270Z,55.25
2018-11-28T13:44:17.252Z,55.05
2018-11-28T13:48:21.339Z,55.29
2018-11-28T13:52:25.397Z,55.75
2018-11-28T13:56:58.284Z,55.98
2018-11-28T14:00:33.531Z,55.74
2018-11-28T14:04:37.528Z,55.87
2018-11-28T14:08:41.571Z,56.16
2018-11-28T14:12:45.563Z,56.13
2018-11-28T14:16:49.626Z,56.06
2018-11-28T14:20:53.711Z,56.30
2018-11-28T14:24:57.825Z,56.31
2018-11-28T14:29:01.838Z,56.50
2018-11-28T14:33:05.832Z,56.75
2018-11-28T14:37:09.813Z,56.92
2018-11-28T14:41:13.790Z,57.17
2018-11-28T14:45:18.516Z,57.54
2018-11-28T14:49:22.735Z,57.84
2018-11-28T14:53:26.719Z,58.20
2018-11-28T14:57:30.828Z,59.36
2018-11-28T15:01:34.898Z,60.52
2018-11-28T15:05:41.685Z,60.83
2018-11-28T15:09:51.101Z,61.32
2018-11-28T15:13:55.160Z,61.85
2018-11-28T15:17:59.148Z,61.90
2018-11-28T15:22:03.186Z,62.14
2018-11-28T15:26:07.475Z,62.09
2018-11-28T15:30:11.489Z,62.59
2018-11-28T15:34:15.494Z,63.86
2018-11-28T15:38:19.497Z,63.98
2018-11-28T15:42:23.545Z,64.41
2018-11-28T15:46:27.597Z,64.39
2018-11-28T15:50:31.612Z,64.23
2018-11-28T15:54:35.689Z,63.86
2018-11-28T15:58:39.745Z,64.26
2018-11-28T16:02:43.862Z,64.50
2018-11-28T16:06:47.928Z,64.75
2018-11-28T16:10:52.157Z,65.19
2018-11-28T16:14:56.364Z,65.75
2018-11-28T16:19:00.445Z,66.21
2018-11-28T16:23:04.668Z,66.24
2018-11-28T16:27:08.475Z,66.44
2018-11-28T16:31:12.589Z,66.94
2018-11-28T16:35:17.572Z,67.03
2018-11-28T16:39:21.665Z,66.48
2018-11-28T16:43:25.726Z,66.52
2018-11-28T16:47:30.046Z,67.44
2018-11-28T16:51:34.182Z,67.32
2018-11-28T16:55:38.264Z,67.18
2018-11-28T16:59:42.269Z,67.31
2018-11-28T17:03:46.335Z,67.07
2018-11-28T17:07:50.720Z,67.38
2018-11-28T17:11:54.814Z,67.01
2018-11-28T17:15:59.028Z,67.10
2018-11-28T17:20:03.060Z,67.01
2018-11-28T17:24:07.072Z,67.05
2018-11-28T17:28:11.172Z,66.67
2018-11-28T17:32:15.189Z,66.75
2018-11-28T17:36:19.188Z,66.59
2018-11-28T17:40:24.507Z,66.45
2018-11-28T17:44:28.611Z,66.40
2018-11-28T17:48:32.745Z,66.56
2018-11-28T17:52:36.782Z,65.89
2018-11-28T17:58:05.712Z,65.77
2018-11-28T18:02:09.798Z,65.93
2018-11-28T18:06:14.022Z,65.74
2018-11-28T18:11:22.391Z,66.02
2018-11-28T18:15:26.372Z,65.81
2018-11-28T18:19:30.526Z,65.88
2018-11-28T18:23:34.527Z,65.68
2018-11-28T18:27:38.646Z,65.79
2018-11-28T18:31:42.912Z,65.44
2018-11-28T18:35:48.197Z,65.67
2018-11-28T18:39:52.280Z,64.94
2018-11-28T18:43:56.365Z,65.17
2018-11-28T18:48:00.468Z,64.86
2018-11-28T18:52:04.545Z,64.83
2018-11-28T18:56:08.771Z,64.48
2018-11-28T19:00:15.903Z,64.49
2018-11-28T19:04:20.013Z,64.80
2018-11-28T19:08:24.209Z,64.25
2018-11-28T19:12:28.383Z,64.10
2018-11-28T19:16:37.769Z,63.66
2018-11-28T19:20:36.592Z,63.62
2018-11-28T19:24:40.652Z,63.62
2018-11-28T19:28:44.723Z,63.43
2018-11-28T19:32:49.918Z,63.30
2018-11-28T19:36:54.033Z,63.29
2018-11-28T19:40:59.924Z,63.75
2018-11-28T19:45:04.511Z,63.31
2018-11-28T19:49:09.061Z,63.26
2018-11-28T19:53:13.051Z,62.96
2018-11-28T19:57:17.049Z,63.24
2018-11-28T20:01:21.171Z,63.39
2018-11-28T20:05:25.381Z,62.97
2018-11-28T20:09:29.448Z,63.01
2018-11-28T20:13:33.495Z,62.92
2018-11-28T20:17:37.588Z,62.92
2018-11-28T20:21:41.641Z,63.21
2018-11-28T20:25:45.866Z,63.13
2018-11-28T20:29:49.921Z,62.90
2018-11-28T20:33:53.981Z,63.13
2018-11-28T20:37:58.052Z,63.06
2018-11-28T20:42:02.129Z,63.01
2018-11-28T20:46:07.025Z,63.32
2018-11-28T20:50:14.312Z,63.35
2018-11-28T20:54:18.456Z,63.03
2018-11-28T20:58:22.565Z,62.98
2018-11-28T21:02:26.585Z,63.11
2018-11-28T21:06:30.623Z,63.31
2018-11-28T21:10:34.700Z,62.98
2018-11-28T21:14:38.688Z,62.66
2018-11-28T21:18:42.716Z,63.37
2018-11-28T21:22:51.838Z,62.52
2018-11-28T21:26:55.949Z,62.76
2018-11-28T21:30:59.956Z,62.79
2018-11-28T21:35:04.169Z,63.04
2018-11-28T21:39:09.405Z,63.19
2018-11-28T21:43:13.380Z,63.30
2018-11-28T21:47:17.472Z,63.32
2018-11-28T21:51:21.499Z,62.95
2018-11-28T21:55:25.655Z,62.58
2018-11-28T21:59:29.785Z,62.80
2018-11-28T22:03:33.780Z,63.17
2018-11-28T22:07:37.909Z,63.16
2018-11-28T22:11:42.035Z,63.07
2018-11-28T22:15:46.084Z,62.89
2018-11-28T22:19:51.066Z,62.61
2018-11-28T22:23:55.176Z,63.17
2018-11-28T22:27:59.188Z,62.61
2018-11-28T22:32:03.248Z,63.23
2018-11-28T22:36:07.226Z,63.32
2018-11-28T22:40:13.217Z,63.53
2018-11-28T22:44:17.309Z,63.13
2018-11-28T22:48:21.371Z,63.17
2018-11-28T22:52:26.288Z,63.36
2018-11-28T22:56:30.348Z,63.05
2018-11-28T23:00:39.748Z,62.67
2018-11-28T23:04:43.840Z,63.03
2018-11-28T23:08:47.865Z,62.36
2018-11-28T23:12:51.921Z,62.55
2018-11-28T23:16:56.083Z,62.71
2018-11-28T23:21:00.221Z,62.67
2018-11-28T23:25:04.658Z,63.08
2018-11-28T23:29:08.781Z,63.31
2018-11-28T23:33:16.120Z,63.46
2018-11-28T23:37:16.776Z,63.21
2018-11-28T23:41:20.789Z,63.37
2018-11-28T23:45:25.490Z,62.91
2018-11-28T23:49:29.637Z,63.01
2018-11-28T23:53:33.750Z,62.74
2018-11-28T23:57:37.861Z,62.84
